Portada
METAR-TAF:

METAR-TAF

Aeroports :

Palembang, Indonèsia

latitud: 02-54S, longitud: 104-42E, altitud: 10 m

Observació

L'informe es va fer fa 8 hores i 2 minuts, a les 13:00 UTC
Vent 2 kt del Oest
Temperatura 24°C
Humitat 94%
Pressió 1010 hPa
Visibilitat: 4000 m
Escasses núvols a una alçada de 1100 ft, Cumulonimbus.
Cel ennuvolat a una alçada de 1000 ft

METAR: WIPP 261300Z 27002KT 4000 FEW011CB BKN010 24/23 Q1010 RMK CB TONE

Hora: 04:02 (21:02 UTC)

Pronòstic

L'informe es va fer fa 4 hores i 2 minuts, a les 17:00 UTC
Pronòstic vàlid del 26 a les 18 UTC al 27 a les 18 UTC
Vent kt del Nord
Visibilitat: 5000 m
Núvols disperses a una alçada de 1000 ft
calitja
Temporalment
l' 26 a les 21 UTC al 26 a les 24 UTC
Visibilitat: 1500 m
boirina
Evolucionant progressivament
l' 27 a les 00 UTC al 27 a les 02 UTC
Vent 5 kt del Nord-Oest
Visibilitat 10 km o més

TAF: WIPP 261700Z 2618/2718 00000KT 5000 HZ SCT010 TEMPO 2621/2624 1500 BR BECMG 2700/2702 31005KT 9999

Observacions i pronòstics meteorològics de més de 4000 aeroports (METAR i TAF).

Les estacions disponibles són els punts grocs i vermells al mapa.

Posi el ratolí al punt desitjat per veure el nom de l'estació.

Feu clic per veure les observacions i els pronòstics meteorològics.

Per canviar el mapa: feu clic els botons verds amb una creu de color negre per apropar; al botó verd amb un guió per allunyar la imatge; o en les fletxes verdes per a mapes adjacents.


METAR-TAF: